createdAt,value
2022-11-29T00:01:19.021Z,5.80
2022-11-29T00:03:45.731Z,5.97
2022-11-29T00:06:13.970Z,5.78
2022-11-29T00:08:41.304Z,6.78
2022-11-29T00:11:10.283Z,7.38
2022-11-29T00:13:37.218Z,6.67
2022-11-29T00:16:06.036Z,6.88
2022-11-29T00:18:34.555Z,7.47
2022-11-29T00:21:05.461Z,6.68
2022-11-29T00:23:32.207Z,6.10
2022-11-29T00:26:03.614Z,6.30
2022-11-29T00:28:30.113Z,6.43
2022-11-29T00:30:56.806Z,6.65
2022-11-29T00:33:23.416Z,6.60
2022-11-29T00:35:51.319Z,7.15
2022-11-29T00:38:17.866Z,7.30
2022-11-29T00:40:44.403Z,6.75
2022-11-29T00:43:10.893Z,6.55
2022-11-29T00:45:37.425Z,7.47
2022-11-29T00:48:04.603Z,7.60
2022-11-29T00:50:31.077Z,6.53
2022-11-29T00:52:58.989Z,7.32
2022-11-29T00:55:25.535Z,6.72
2022-11-29T00:57:52.126Z,6.85
2022-11-29T01:00:18.997Z,7.15
2022-11-29T01:02:46.548Z,7.13
2022-11-29T01:05:13.102Z,7.05
2022-11-29T01:07:39.701Z,6.72
2022-11-29T01:10:08.724Z,6.95
2022-11-29T01:12:35.785Z,6.85
2022-11-29T01:15:02.755Z,6.20
2022-11-29T01:17:29.483Z,6.70
2022-11-29T01:19:55.965Z,6.60
2022-11-29T01:22:22.665Z,6.35
2022-11-29T01:24:49.597Z,7.25
2022-11-29T01:27:17.451Z,6.63
2022-11-29T01:29:43.963Z,6.10
2022-11-29T01:32:10.500Z,5.80
2022-11-29T01:34:37.326Z,6.47
2022-11-29T01:37:03.932Z,6.47
2022-11-29T01:39:30.508Z,6.30
2022-11-29T01:41:57.078Z,5.70
2022-11-29T01:45:04.264Z,5.70
2022-11-29T01:47:31.619Z,5.72
2022-11-29T01:49:58.910Z,6.35
2022-11-29T01:52:28.294Z,5.40
2022-11-29T01:54:57.988Z,5.38
2022-11-29T01:57:25.647Z,5.80
2022-11-29T01:59:57.490Z,5.82
2022-11-29T02:02:31.264Z,6.00
2022-11-29T02:04:59.087Z,5.70
2022-11-29T02:07:26.060Z,5.43
2022-11-29T02:09:52.590Z,6.05
2022-11-29T02:12:28.333Z,5.57
2022-11-29T02:15:18.564Z,5.70
2022-11-29T02:17:59.894Z,5.20
2022-11-29T02:20:58.156Z,5.47
2022-11-29T02:23:54.751Z,5.68
2022-11-29T02:26:36.262Z,5.70
2022-11-29T02:29:37.242Z,5.93
2022-11-29T02:32:33.574Z,5.07
2022-11-29T02:35:19.611Z,5.60
2022-11-29T02:38:08.630Z,5.60
2022-11-29T02:41:00.092Z,5.20
2022-11-29T02:43:56.053Z,5.47
2022-11-29T02:46:42.125Z,5.10
2022-11-29T02:49:18.643Z,5.43
2022-11-29T02:51:55.597Z,5.22
2022-11-29T02:54:27.001Z,5.60
2022-11-29T02:56:57.122Z,5.65
2022-11-29T02:59:42.478Z,6.10
2022-11-29T03:02:20.908Z,6.03
2022-11-29T03:04:53.802Z,5.30
2022-11-29T03:07:32.809Z,5.47
2022-11-29T03:10:08.210Z,5.80
2022-11-29T03:12:40.042Z,6.20
2022-11-29T03:15:19.773Z,5.90
2022-11-29T03:18:00.202Z,5.95
2022-11-29T03:20:35.968Z,6.22
2022-11-29T03:23:18.699Z,6.07
2022-11-29T03:25:51.856Z,6.53
2022-11-29T03:28:22.440Z,6.80
2022-11-29T03:30:54.102Z,6.32
2022-11-29T03:33:27.906Z,6.55
2022-11-29T03:36:01.754Z,6.72
2022-11-29T03:38:38.818Z,6.57
2022-11-29T03:41:16.446Z,7.13
2022-11-29T03:43:46.972Z,7.80
2022-11-29T03:46:23.171Z,6.45
2022-11-29T03:48:53.165Z,6.85
2022-11-29T03:51:24.547Z,6.70
2022-11-29T03:53:58.450Z,6.60
2022-11-29T03:56:31.470Z,7.70
2022-11-29T03:59:10.038Z,6.95
2022-11-29T04:02:12.289Z,7.03
2022-11-29T04:05:09.197Z,7.50
2022-11-29T04:07:48.852Z,6.70
2022-11-29T04:10:33.634Z,7.47
2022-11-29T04:13:32.980Z,6.63
2022-11-29T04:16:31.538Z,7.05
2022-11-29T04:19:34.187Z,6.60
2022-11-29T04:22:31.563Z,6.43
2022-11-29T04:25:49.057Z,6.55
2022-11-29T04:28:46.537Z,6.65
2022-11-29T04:31:26.637Z,6.63
2022-11-29T04:34:10.324Z,6.13
2022-11-29T04:37:03.980Z,6.70
2022-11-29T04:40:08.309Z,6.32
2022-11-29T04:43:03.873Z,6.85
2022-11-29T04:45:59.295Z,6.38
2022-11-29T04:48:55.903Z,7.03
2022-11-29T04:51:39.728Z,6.43
2022-11-29T04:54:15.979Z,7.82
2022-11-29T04:56:47.247Z,7.45
2022-11-29T04:59:21.595Z,7.75
2022-11-29T05:01:59.967Z,7.73
2022-11-29T05:04:33.462Z,7.57
2022-11-29T05:07:05.627Z,7.70
2022-11-29T05:09:44.421Z,7.47
2022-11-29T05:12:19.193Z,8.45
2022-11-29T05:15:09.865Z,7.80
2022-11-29T05:17:47.664Z,8.18
2022-11-29T05:20:27.987Z,8.38
2022-11-29T05:23:10.915Z,8.60
2022-11-29T05:25:45.373Z,8.82
2022-11-29T05:28:19.122Z,8.70
2022-11-29T05:31:03.799Z,9.10
2022-11-29T05:33:59.596Z,9.00
2022-11-29T05:36:37.826Z,9.88
2022-11-29T05:39:20.962Z,8.65
2022-11-29T05:42:06.454Z,9.40
2022-11-29T05:44:38.928Z,9.05
2022-11-29T05:47:09.054Z,9.85
2022-11-29T05:49:46.914Z,10.30
2022-11-29T05:52:22.510Z,10.05
2022-11-29T05:54:59.220Z,10.20
2022-11-29T05:57:33.771Z,10.73
2022-11-29T06:00:04.235Z,10.30
2022-11-29T06:02:42.681Z,10.27
2022-11-29T06:05:15.580Z,11.32
2022-11-29T06:07:51.529Z,10.43
2022-11-29T06:10:21.071Z,10.57
2022-11-29T06:12:55.899Z,11.77
2022-11-29T06:15:46.577Z,11.20
2022-11-29T06:18:40.985Z,10.98
2022-11-29T06:21:17.325Z,12.53
2022-11-29T06:23:58.539Z,12.43
2022-11-29T06:26:44.674Z,11.93
2022-11-29T06:29:27.560Z,11.07
2022-11-29T06:32:06.105Z,11.38
2022-11-29T06:34:41.936Z,10.80
2022-11-29T06:37:15.807Z,12.13
2022-11-29T06:39:42.795Z,12.50
2022-11-29T06:42:09.485Z,11.00
2022-11-29T06:44:36.460Z,11.75
2022-11-29T06:47:07.192Z,11.57
2022-11-29T06:49:39.718Z,11.40
2022-11-29T06:52:20.315Z,11.82
2022-11-29T06:55:03.181Z,10.77
2022-11-29T06:57:42.690Z,12.13
2022-11-29T07:00:15.786Z,10.87
2022-11-29T07:03:15.989Z,10.90
2022-11-29T07:05:44.393Z,11.43
2022-11-29T07:08:16.104Z,11.15
2022-11-29T07:10:43.731Z,11.63
2022-11-29T07:13:11.774Z,11.63
2022-11-29T07:15:41.479Z,11.65
2022-11-29T07:18:17.192Z,11.93
2022-11-29T07:20:54.562Z,11.02
2022-11-29T07:23:28.992Z,11.90
2022-11-29T07:26:07.366Z,11.17
2022-11-29T07:28:47.853Z,12.02
2022-11-29T07:31:22.738Z,11.55
2022-11-29T07:33:57.468Z,10.88
2022-11-29T07:36:33.972Z,11.65
2022-11-29T07:39:12.037Z,10.90
2022-11-29T07:41:46.376Z,11.25
2022-11-29T07:44:20.969Z,13.15
2022-11-29T07:46:47.703Z,12.82
2022-11-29T07:49:14.507Z,12.27
2022-11-29T07:51:43.060Z,11.00
2022-11-29T07:54:11.259Z,10.95
2022-11-29T07:56:37.806Z,11.23
2022-11-29T07:59:04.367Z,11.13
2022-11-29T08:01:31.366Z,10.98
2022-11-29T08:03:57.913Z,10.20
2022-11-29T08:06:24.965Z,10.18
2022-11-29T08:08:53.033Z,10.15
2022-11-29T08:11:19.584Z,10.32
2022-11-29T08:13:46.122Z,9.15
2022-11-29T08:16:16.420Z,9.80
2022-11-29T08:18:42.974Z,9.98
2022-11-29T08:21:09.781Z,10.05
2022-11-29T08:23:36.597Z,9.85
2022-11-29T08:26:04.618Z,9.85
2022-11-29T08:28:31.323Z,10.33
2022-11-29T08:31:02.010Z,9.95
2022-11-29T08:33:28.691Z,9.48
2022-11-29T08:35:55.357Z,10.27
2022-11-29T08:38:22.145Z,9.65
2022-11-29T08:40:48.652Z,9.40
2022-11-29T08:43:16.580Z,9.85
2022-11-29T08:45:43.327Z,10.13
2022-11-29T08:48:09.890Z,10.70
2022-11-29T08:50:36.494Z,11.10
2022-11-29T08:53:03.016Z,10.60
2022-11-29T08:55:34.494Z,10.02
2022-11-29T08:58:03.364Z,9.50
2022-11-29T09:00:32.247Z,10.52
2022-11-29T09:02:59.280Z,9.85
2022-11-29T09:05:25.804Z,11.40
2022-11-29T09:07:52.641Z,14.65
2022-11-29T09:10:19.238Z,12.88
2022-11-29T09:12:45.921Z,11.20
2022-11-29T09:15:12.897Z,9.70
2022-11-29T09:17:40.755Z,10.73
2022-11-29T09:20:08.517Z,9.82
2022-11-29T09:22:35.024Z,10.70
2022-11-29T09:25:01.681Z,10.50
2022-11-29T09:27:28.198Z,10.73
2022-11-29T09:29:54.702Z,10.70
2022-11-29T09:32:21.248Z,10.55
2022-11-29T09:34:49.234Z,10.50
2022-11-29T09:37:15.775Z,10.18
2022-11-29T09:39:42.374Z,10.00
2022-11-29T09:42:27.672Z,9.27
2022-11-29T09:45:02.560Z,9.75
2022-11-29T09:47:56.815Z,9.95
2022-11-29T09:50:31.541Z,10.07
2022-11-29T09:53:13.531Z,9.65
2022-11-29T09:55:52.120Z,9.57
2022-11-29T09:58:23.519Z,9.32
2022-11-29T10:00:52.884Z,9.85
2022-11-29T10:03:24.977Z,9.90
2022-11-29T10:05:56.299Z,9.30
2022-11-29T10:08:30.781Z,9.27
2022-11-29T10:11:08.754Z,9.82
2022-11-29T10:13:35.863Z,9.27
2022-11-29T10:16:09.906Z,9.40
2022-11-29T10:18:40.167Z,9.18
2022-11-29T10:21:12.398Z,8.53
2022-11-29T10:23:43.605Z,8.85
2022-11-29T10:26:11.988Z,10.27
2022-11-29T10:28:42.867Z,9.20
2022-11-29T10:31:19.806Z,10.13
2022-11-29T10:33:46.949Z,9.27
2022-11-29T10:36:22.280Z,9.50
2022-11-29T10:38:50.211Z,9.57
2022-11-29T10:41:21.663Z,9.75
2022-11-29T10:43:50.010Z,9.73
2022-11-29T10:46:26.417Z,9.80
2022-11-29T10:48:53.645Z,9.52
2022-11-29T10:51:21.708Z,9.23
2022-11-29T10:53:52.119Z,9.30
2022-11-29T10:56:22.899Z,8.55
2022-11-29T10:58:56.023Z,9.00
2022-11-29T11:01:23.435Z,9.68
2022-11-29T11:03:53.168Z,9.70
2022-11-29T11:06:23.105Z,9.30
2022-11-29T11:08:52.910Z,8.80
2022-11-29T11:11:25.411Z,9.20
2022-11-29T11:13:58.382Z,8.77
2022-11-29T11:16:25.656Z,10.05
2022-11-29T11:18:52.597Z,9.40
2022-11-29T11:21:24.078Z,8.90
2022-11-29T11:23:56.666Z,9.73
2022-11-29T11:26:24.328Z,9.40
2022-11-29T11:28:54.758Z,9.15
2022-11-29T11:31:31.641Z,8.60
2022-11-29T11:34:24.189Z,9.30
2022-11-29T11:36:52.484Z,8.77
2022-11-29T11:39:21.079Z,8.80
2022-11-29T11:41:48.254Z,8.60
2022-11-29T11:44:46.427Z,9.02
2022-11-29T11:47:15.892Z,8.68
2022-11-29T11:49:48.696Z,8.50
2022-11-29T11:52:21.876Z,8.77
2022-11-29T11:54:53.587Z,8.95
2022-11-29T11:57:21.682Z,8.82
2022-11-29T11:59:49.289Z,9.15
2022-11-29T12:02:25.998Z,9.10
2022-11-29T12:04:54.942Z,8.75
2022-11-29T12:08:05.694Z,8.90
2022-11-29T12:10:22.596Z,8.20
2022-11-29T12:12:50.225Z,8.82
2022-11-29T12:15:20.324Z,8.67
2022-11-29T12:17:49.846Z,7.68
2022-11-29T12:20:25.889Z,8.63
2022-11-29T12:23:09.038Z,8.00
2022-11-29T12:25:46.448Z,8.75
2022-11-29T12:28:20.361Z,8.20
2022-11-29T12:30:58.021Z,8.68
2022-11-29T12:33:35.145Z,8.45
2022-11-29T12:36:19.186Z,8.30
2022-11-29T12:39:07.746Z,9.10
2022-11-29T12:41:43.738Z,9.30
2022-11-29T12:44:24.686Z,8.52
2022-11-29T12:47:28.176Z,8.45
2022-11-29T12:50:00.862Z,9.38
2022-11-29T12:52:36.277Z,9.30
2022-11-29T12:55:17.210Z,7.90
2022-11-29T12:57:53.447Z,8.32
2022-11-29T13:00:20.835Z,8.30
2022-11-29T13:03:00.363Z,8.90
2022-11-29T13:05:41.172Z,8.20
2022-11-29T13:08:24.911Z,7.90
2022-11-29T13:11:06.511Z,7.43
2022-11-29T13:13:39.294Z,9.57
2022-11-29T13:16:20.539Z,8.50
2022-11-29T13:18:53.773Z,8.60
2022-11-29T13:21:27.795Z,7.97
2022-11-29T13:24:10.539Z,8.50
2022-11-29T13:26:39.943Z,8.35
2022-11-29T13:29:12.529Z,7.82
2022-11-29T13:31:39.667Z,9.32
2022-11-29T13:34:12.440Z,9.00
2022-11-29T13:36:47.538Z,9.52
2022-11-29T13:39:28.149Z,8.82
2022-11-29T13:42:03.587Z,12.80
2022-11-29T13:44:38.620Z,12.13
2022-11-29T13:47:08.613Z,9.67
2022-11-29T13:49:56.244Z,9.50
2022-11-29T13:52:34.802Z,9.88
2022-11-29T13:55:17.776Z,9.77
2022-11-29T13:58:19.413Z,8.85
2022-11-29T14:00:50.631Z,8.33
2022-11-29T14:03:30.197Z,12.82
2022-11-29T14:06:15.864Z,11.07
2022-11-29T14:09:19.593Z,9.35
2022-11-29T14:11:49.286Z,9.57
2022-11-29T14:14:25.589Z,9.60
2022-11-29T14:16:55.410Z,7.70
2022-11-29T14:19:27.657Z,8.30
2022-11-29T14:22:20.155Z,9.30
2022-11-29T14:25:35.015Z,9.77
2022-11-29T14:28:01.078Z,8.07
2022-11-29T14:30:47.387Z,8.32
2022-11-29T14:33:42.299Z,8.27
2022-11-29T14:36:41.438Z,8.50
2022-11-29T14:39:27.314Z,8.32
2022-11-29T14:42:03.480Z,8.87
2022-11-29T14:44:32.369Z,8.65
2022-11-29T14:47:04.162Z,9.25
2022-11-29T14:49:39.611Z,8.25
2022-11-29T14:52:24.809Z,8.18
2022-11-29T14:54:56.168Z,8.30
2022-11-29T14:58:02.634Z,8.20
2022-11-29T15:00:34.680Z,9.50
2022-11-29T15:03:09.668Z,8.65
2022-11-29T15:05:40.003Z,9.13
2022-11-29T15:08:11.956Z,9.00
2022-11-29T15:10:42.872Z,9.18
2022-11-29T15:13:12.752Z,8.98
2022-11-29T15:15:58.394Z,20.50
2022-11-29T15:18:49.438Z,13.38
2022-11-29T15:21:29.604Z,11.50
2022-11-29T15:23:59.045Z,12.00
2022-11-29T15:26:25.681Z,12.10
2022-11-29T15:28:52.174Z,11.80
2022-11-29T15:31:20.772Z,11.32
2022-11-29T15:33:49.233Z,12.43
2022-11-29T15:36:18.889Z,15.77
2022-11-29T15:38:47.556Z,16.90
2022-11-29T15:41:22.501Z,13.73
2022-11-29T15:43:52.146Z,12.25
2022-11-29T15:46:19.795Z,11.70
2022-11-29T15:48:46.437Z,13.23
2022-11-29T15:51:24.464Z,19.35
2022-11-29T15:54:11.308Z,19.63
2022-11-29T15:56:45.178Z,16.30
2022-11-29T15:59:19.918Z,14.57
2022-11-29T16:01:50.173Z,13.50
2022-11-29T16:04:20.090Z,12.02
2022-11-29T16:06:49.264Z,11.55
2022-11-29T16:09:19.718Z,14.02
2022-11-29T16:11:48.115Z,11.70
2022-11-29T16:14:21.955Z,12.95
2022-11-29T16:16:51.152Z,11.80
2022-11-29T16:19:25.878Z,11.45
2022-11-29T16:22:02.708Z,11.63
2022-11-29T16:24:29.483Z,12.37
2022-11-29T16:26:56.340Z,11.45
2022-11-29T16:29:28.645Z,13.15
2022-11-29T16:31:55.691Z,13.50
2022-11-29T16:34:27.238Z,14.43
2022-11-29T16:37:03.077Z,16.00
2022-11-29T16:39:30.505Z,14.23
2022-11-29T16:42:13.586Z,14.27
2022-11-29T16:45:05.436Z,14.23
2022-11-29T16:47:45.414Z,15.57
2022-11-29T16:50:18.013Z,14.63
2022-11-29T16:52:46.457Z,19.33
2022-11-29T16:55:14.353Z,20.90
2022-11-29T16:57:41.142Z,22.02
2022-11-29T17:00:23.882Z,19.30
2022-11-29T17:02:50.679Z,17.10
2022-11-29T17:05:17.409Z,15.98
2022-11-29T17:07:44.213Z,15.27
2022-11-29T17:10:16.682Z,13.20
2022-11-29T17:12:47.812Z,13.82
2022-11-29T17:15:15.128Z,12.90
2022-11-29T17:17:41.989Z,13.48
2022-11-29T17:20:10.824Z,13.00
2022-11-29T17:22:37.631Z,12.68
2022-11-29T17:25:04.798Z,12.65
2022-11-29T17:27:32.692Z,12.53
2022-11-29T17:29:59.211Z,12.82
2022-11-29T17:32:26.961Z,11.93
2022-11-29T17:34:53.831Z,13.25
2022-11-29T17:37:20.468Z,12.90
2022-11-29T17:39:47.186Z,13.73
2022-11-29T17:42:13.880Z,13.55
2022-11-29T17:44:41.848Z,13.88
2022-11-29T17:47:08.397Z,15.88
2022-11-29T17:49:34.972Z,16.45
2022-11-29T17:52:01.631Z,15.23
2022-11-29T17:54:28.221Z,13.48
2022-11-29T17:56:55.116Z,14.60
2022-11-29T17:59:21.646Z,14.65
2022-11-29T18:01:49.642Z,13.05
2022-11-29T18:04:16.253Z,13.97
2022-11-29T18:06:42.944Z,13.82
2022-11-29T18:09:11.191Z,12.85
2022-11-29T18:11:47.070Z,12.82
2022-11-29T18:14:16.067Z,12.60
2022-11-29T18:16:42.865Z,13.23
2022-11-29T18:19:12.148Z,12.32
2022-11-29T18:21:39.440Z,12.85
2022-11-29T18:24:06.962Z,12.68
2022-11-29T18:26:34.959Z,14.82
2022-11-29T18:29:02.206Z,14.60
2022-11-29T18:31:30.419Z,15.98
2022-11-29T18:33:59.007Z,15.30
2022-11-29T18:36:29.304Z,15.23
2022-11-29T18:38:57.646Z,16.33
2022-11-29T18:41:24.862Z,14.80
2022-11-29T18:43:56.594Z,16.05
2022-11-29T18:46:23.327Z,15.18
2022-11-29T18:48:50.031Z,15.63
2022-11-29T18:51:18.531Z,14.77
2022-11-29T18:53:46.944Z,15.83
2022-11-29T18:56:15.366Z,16.00
2022-11-29T18:58:42.659Z,14.57
2022-11-29T19:01:10.910Z,14.98
2022-11-29T19:03:39.209Z,15.60
2022-11-29T19:06:07.608Z,16.53
2022-11-29T19:08:34.663Z,13.75
2022-11-29T19:11:05.582Z,15.82
2022-11-29T19:13:32.336Z,15.18
2022-11-29T19:15:58.936Z,16.15
2022-11-29T19:18:25.627Z,15.23
2022-11-29T19:20:52.227Z,17.08
2022-11-29T19:23:19.227Z,20.20
2022-11-29T19:25:46.036Z,18.75
2022-11-29T19:28:14.551Z,19.20
2022-11-29T19:30:41.373Z,15.13
2022-11-29T19:33:08.072Z,14.55
2022-11-29T19:35:35.041Z,14.60
2022-11-29T19:38:01.658Z,14.40
2022-11-29T19:40:28.240Z,14.02
2022-11-29T19:42:57.652Z,13.83
2022-11-29T19:45:25.550Z,13.98
2022-11-29T19:47:52.147Z,13.43
2022-11-29T19:50:18.676Z,15.18
2022-11-29T19:52:45.226Z,14.60
2022-11-29T19:55:11.861Z,14.57
2022-11-29T19:57:38.499Z,12.23
2022-11-29T20:00:06.430Z,14.75
2022-11-29T20:02:34.644Z,19.00
2022-11-29T20:05:01.306Z,19.48
2022-11-29T20:07:28.124Z,16.83
2022-11-29T20:09:54.922Z,16.77
2022-11-29T20:12:21.523Z,16.70
2022-11-29T20:14:48.257Z,15.27
2022-11-29T20:17:14.812Z,18.33
2022-11-29T20:19:42.769Z,17.53
2022-11-29T20:22:09.293Z,16.92
2022-11-29T20:24:41.281Z,18.63
2022-11-29T20:27:11.636Z,16.65
2022-11-29T20:29:38.232Z,16.92
2022-11-29T20:32:05.368Z,14.87
2022-11-29T20:34:32.295Z,16.02
2022-11-29T20:37:22.880Z,15.27
2022-11-29T20:39:54.582Z,17.23
2022-11-29T20:43:06.186Z,13.75
2022-11-29T20:45:33.399Z,12.80
2022-11-29T20:48:04.411Z,12.40
2022-11-29T20:50:32.466Z,13.13
2022-11-29T20:53:10.735Z,12.90
2022-11-29T20:55:37.354Z,13.65
2022-11-29T20:58:03.909Z,16.20
2022-11-29T21:00:30.438Z,15.13
2022-11-29T21:02:56.983Z,14.25
2022-11-29T21:05:23.623Z,13.35
2022-11-29T21:07:50.400Z,14.57
2022-11-29T21:10:18.653Z,14.87
2022-11-29T21:12:45.983Z,14.23
2022-11-29T21:15:13.897Z,14.20
2022-11-29T21:17:41.388Z,15.55
2022-11-29T21:20:16.053Z,15.88
2022-11-29T21:22:52.501Z,14.30
2022-11-29T21:25:29.064Z,16.63
2022-11-29T21:27:57.276Z,16.00
2022-11-29T21:30:24.925Z,13.80
2022-11-29T21:32:52.221Z,14.48
2022-11-29T21:35:18.814Z,16.13
2022-11-29T21:37:45.838Z,15.05
2022-11-29T21:40:14.369Z,14.55
2022-11-29T21:42:42.422Z,14.35
2022-11-29T21:45:15.293Z,14.93
2022-11-29T21:47:42.923Z,15.80
2022-11-29T21:50:11.011Z,13.63
2022-11-29T21:52:37.685Z,12.88
2022-11-29T21:55:05.745Z,13.98
2022-11-29T21:57:32.263Z,14.95
2022-11-29T22:00:00.333Z,13.90
2022-11-29T22:02:26.944Z,14.77
2022-11-29T22:04:53.555Z,14.48
2022-11-29T22:07:20.186Z,14.60
2022-11-29T22:09:46.849Z,13.25
2022-11-29T22:12:33.092Z,14.57
2022-11-29T22:15:01.362Z,15.75
2022-11-29T22:17:27.909Z,15.30
2022-11-29T22:19:54.479Z,14.68
2022-11-29T22:22:21.071Z,14.18
2022-11-29T22:24:48.003Z,14.80
2022-11-29T22:27:14.719Z,14.10
2022-11-29T22:29:41.269Z,16.08
2022-11-29T22:32:09.173Z,16.30
2022-11-29T22:34:35.745Z,16.92
2022-11-29T22:37:02.423Z,14.83
2022-11-29T22:39:28.955Z,15.63
2022-11-29T22:41:55.528Z,18.30
2022-11-29T22:44:22.218Z,16.85
2022-11-29T22:46:48.958Z,15.40
2022-11-29T22:49:16.943Z,14.63
2022-11-29T22:51:43.553Z,15.38
2022-11-29T22:54:11.129Z,15.20
2022-11-29T22:56:39.367Z,15.38
2022-11-29T22:59:06.460Z,13.93
2022-11-29T23:01:35.445Z,14.00
2022-11-29T23:04:04.145Z,13.73
2022-11-29T23:06:34.145Z,14.13
2022-11-29T23:09:05.381Z,13.43
2022-11-29T23:11:31.920Z,14.07
2022-11-29T23:13:58.631Z,13.27
2022-11-29T23:16:27.596Z,13.13
2022-11-29T23:18:55.632Z,13.98
2022-11-29T23:21:24.169Z,13.90
2022-11-29T23:23:56.421Z,13.85
2022-11-29T23:26:25.771Z,12.73
2022-11-29T23:28:53.275Z,13.57
2022-11-29T23:31:20.812Z,12.82
2022-11-29T23:33:47.613Z,14.50
2022-11-29T23:36:15.099Z,13.27
2022-11-29T23:38:42.146Z,12.30
2022-11-29T23:41:10.650Z,12.25
2022-11-29T23:43:38.259Z,11.48
2022-11-29T23:46:09.358Z,10.80
2022-11-29T23:48:36.077Z,9.27
2022-11-29T23:51:02.664Z,10.03
2022-11-29T23:53:29.217Z,10.80
2022-11-29T23:55:57.002Z,10.45
2022-11-29T23:58:25.236Z,10.35
